Hamden, Ohio
Current Conditions -  °F | °C
As of 7:15 AM on Friday 28 Nov 2014 (Local Time) from KUNI Reporting Station
Overcast Overcast  
Wind Chill: 26°   Ceiling: 4200
Heat Index: 26°   Visibility: 10mi
Dew Point: 19°   Wind: 0mph
Humidity: 75%   Direction: NA
Pressure: 30.38"   Gusts: NA
Location:  39.16°N, 82.53°W
Report Text: KUNI 281215Z AUTO 00000KT 10SM OVC042 M03/M07 A3038 RMK AO2 T10331071
Loading
Personal Weather Stations






























Interactive Weather Map New forecast layout! Learn more

10-Day Weather Forecast

Advertisements
Track Severe Weather on mobile